createdAt,value
2023-01-17T00:02:26.989Z,95920.72
2023-01-17T00:07:47.833Z,95915.41
2023-01-17T00:12:55.383Z,95916.16
2023-01-17T00:17:57.576Z,95908.53
2023-01-17T00:23:17.750Z,95921.72
2023-01-17T00:28:19.967Z,95933.69
2023-01-17T00:33:22.863Z,95941.56
2023-01-17T00:38:26.984Z,95946.50
2023-01-17T00:43:48.920Z,95958.56
2023-01-17T00:49:09.791Z,95954.84
2023-01-17T00:54:30.691Z,95961.00
2023-01-17T00:59:51.316Z,95947.53
2023-01-17T01:05:11.180Z,95959.03
2023-01-17T01:10:31.510Z,95970.31
2023-01-17T01:15:51.631Z,95973.16
2023-01-17T01:21:12.461Z,95974.25
2023-01-17T01:26:32.293Z,95984.25
2023-01-17T01:31:52.315Z,95994.41
2023-01-17T01:36:54.016Z,96007.78
2023-01-17T01:41:55.728Z,96005.44
2023-01-17T01:46:57.454Z,96005.81
2023-01-17T01:52:03.399Z,96003.94
2023-01-17T01:57:09.571Z,96017.50
2023-01-17T02:02:11.305Z,96011.44
2023-01-17T02:07:22.100Z,96009.81
2023-01-17T02:12:24.913Z,96008.13
2023-01-17T02:18:01.791Z,95999.84
2023-01-17T02:23:25.280Z,96006.00
2023-01-17T02:28:51.052Z,96015.44
2023-01-17T02:34:20.733Z,96019.34
2023-01-17T02:39:28.431Z,96016.84
2023-01-17T02:44:30.183Z,96017.66
2023-01-17T02:49:32.550Z,96024.69
2023-01-17T02:54:52.417Z,96025.88
2023-01-17T03:00:20.690Z,96028.03
2023-01-17T03:05:25.820Z,96035.97
2023-01-17T03:10:28.993Z,96027.09
2023-01-17T03:15:31.019Z,96021.94
2023-01-17T03:20:32.679Z,96026.34
2023-01-17T03:25:34.572Z,96024.84
2023-01-17T03:30:36.255Z,96032.53
2023-01-17T03:35:37.995Z,96025.69
2023-01-17T03:40:39.705Z,96029.72
2023-01-17T03:45:41.398Z,96030.91
2023-01-17T03:50:43.151Z,96024.84
2023-01-17T03:55:47.784Z,96019.19
2023-01-17T04:00:49.489Z,96016.56
2023-01-17T04:05:51.260Z,96039.59
2023-01-17T04:10:53.007Z,96034.22
2023-01-17T04:15:54.793Z,96040.06
2023-01-17T04:20:56.423Z,96039.59
2023-01-17T04:25:58.148Z,96050.06
2023-01-17T04:31:00.892Z,96049.72
2023-01-17T04:36:02.606Z,96056.88
2023-01-17T04:41:04.418Z,96060.81
2023-01-17T04:46:10.163Z,96056.13
2023-01-17T04:51:12.137Z,96056.88
2023-01-17T04:56:13.942Z,96058.09
2023-01-17T05:01:15.718Z,96067.63
2023-01-17T05:06:17.437Z,96079.34
2023-01-17T05:11:19.131Z,96086.28
2023-01-17T05:16:20.826Z,96085.16
2023-01-17T05:21:22.734Z,96088.88
2023-01-17T05:26:24.653Z,96095.38
2023-01-17T05:31:26.330Z,96103.22
2023-01-17T05:36:28.048Z,96103.22
2023-01-17T05:41:29.693Z,96104.75
2023-01-17T05:46:31.406Z,96120.69
2023-01-17T05:51:33.257Z,96133.75
2023-01-17T05:56:34.979Z,96132.63
2023-01-17T06:01:36.687Z,96130.59
2023-01-17T06:06:38.369Z,96134.25
2023-01-17T06:11:40.084Z,96122.19
2023-01-17T06:16:41.905Z,96131.13
2023-01-17T06:21:43.564Z,96141.75
2023-01-17T06:26:45.312Z,96162.78
2023-01-17T06:31:47.019Z,96175.16
2023-01-17T06:36:49.384Z,96183.84
2023-01-17T06:41:51.142Z,96171.88
2023-01-17T06:46:53.878Z,96174.78
2023-01-17T06:51:55.562Z,96203.00
2023-01-17T06:56:57.269Z,96203.59
2023-01-17T07:01:58.994Z,96205.69
2023-01-17T07:07:01.475Z,96212.84
2023-01-17T07:12:03.740Z,96217.22
2023-01-17T07:17:06.049Z,96209.47
2023-01-17T07:22:10.274Z,96230.06
2023-01-17T07:27:11.897Z,96206.44
2023-01-17T07:32:13.565Z,96206.78
2023-01-17T07:37:15.570Z,96217.47
2023-01-17T07:42:17.414Z,96212.75
2023-01-17T07:47:20.054Z,96211.06
2023-01-17T07:52:21.780Z,96217.88
2023-01-17T07:57:23.823Z,96223.97
2023-01-17T08:02:25.495Z,96228.00
2023-01-17T08:07:27.300Z,96243.00
2023-01-17T08:12:29.649Z,96237.50
2023-01-17T08:17:31.394Z,96240.31
2023-01-17T08:22:33.161Z,96246.31
2023-01-17T08:27:36.257Z,96231.59
2023-01-17T08:32:41.928Z,96246.19
2023-01-17T08:37:46.003Z,96236.47
2023-01-17T08:43:17.843Z,96235.56
2023-01-17T08:48:20.037Z,96222.31
2023-01-17T08:53:23.296Z,96217.66
2023-01-17T08:58:24.987Z,96216.16
2023-01-17T09:03:26.738Z,96219.88
2023-01-17T09:08:28.453Z,96237.88
2023-01-17T09:13:30.203Z,96252.81
2023-01-17T09:18:33.350Z,96255.50
2023-01-17T09:23:35.159Z,96240.63
2023-01-17T09:28:41.205Z,96233.53
2023-01-17T09:33:43.156Z,96232.53
2023-01-17T09:38:45.294Z,96217.50
2023-01-17T09:43:52.452Z,96211.34
2023-01-17T09:49:10.040Z,96207.81
2023-01-17T09:54:22.886Z,96210.41
2023-01-17T09:59:35.350Z,96199.59
2023-01-17T10:05:04.927Z,96204.91
2023-01-17T10:10:24.757Z,96220.59
2023-01-17T10:15:41.452Z,96195.88
2023-01-17T10:21:12.424Z,96213.00
2023-01-17T10:26:27.372Z,96202.94
2023-01-17T10:31:36.228Z,96200.47
2023-01-17T10:36:45.477Z,96211.91
2023-01-17T10:41:55.491Z,96214.28
2023-01-17T10:47:01.416Z,96211.91
2023-01-17T10:52:45.303Z,96210.94
2023-01-17T10:57:48.885Z,96185.03
2023-01-17T11:02:51.728Z,96164.69
2023-01-17T11:08:05.036Z,96142.66
2023-01-17T11:13:27.687Z,96135.56
2023-01-17T11:18:32.197Z,96117.06
2023-01-17T11:23:34.404Z,96129.31
2023-01-17T11:28:41.077Z,96125.94
2023-01-17T11:33:48.154Z,96113.69
2023-01-17T11:39:04.994Z,96103.25
2023-01-17T11:44:31.541Z,96086.47
2023-01-17T11:49:33.581Z,96079.28
2023-01-17T11:54:40.509Z,96071.88
2023-01-17T11:59:46.033Z,96061.91
2023-01-17T12:05:05.025Z,96059.56
2023-01-17T12:10:36.943Z,96063.50
2023-01-17T12:15:52.116Z,96066.75
2023-01-17T12:21:17.738Z,96065.16
2023-01-17T12:26:42.859Z,96057.97
2023-01-17T12:32:22.060Z,96051.25
2023-01-17T12:37:37.247Z,96028.47
2023-01-17T12:42:44.736Z,96018.13
2023-01-17T12:47:54.519Z,96004.50
2023-01-17T12:53:02.035Z,95999.38
2023-01-17T12:58:07.373Z,95999.41
2023-01-17T13:03:33.374Z,95989.81
2023-01-17T13:08:46.610Z,95975.16
2023-01-17T13:13:51.473Z,95947.34
2023-01-17T13:18:53.871Z,95935.28
2023-01-17T13:24:06.032Z,95935.66
2023-01-17T13:29:16.798Z,95935.03
2023-01-17T13:35:09.158Z,95921.22
2023-01-17T13:40:22.661Z,95923.91
2023-01-17T13:45:29.607Z,95901.13
2023-01-17T13:50:37.129Z,95882.00
2023-01-17T13:55:46.866Z,95872.88
2023-01-17T14:00:50.609Z,95850.41
2023-01-17T14:05:57.142Z,95829.59
2023-01-17T14:11:09.838Z,95833.34
2023-01-17T14:16:29.689Z,95835.56
2023-01-17T14:21:32.458Z,95836.09
2023-01-17T14:26:55.521Z,95832.84
2023-01-17T14:32:02.677Z,95819.69
2023-01-17T14:37:13.514Z,95809.75
2023-01-17T14:42:18.869Z,95801.91
2023-01-17T14:47:22.492Z,95807.44
2023-01-17T14:52:24.307Z,95807.22
2023-01-17T14:57:29.454Z,95811.38
2023-01-17T15:02:32.104Z,95811.38
2023-01-17T15:07:33.976Z,95817.56
2023-01-17T15:12:36.961Z,95830.00
2023-01-17T15:17:38.709Z,95837.28
2023-01-17T15:22:40.428Z,95838.75
2023-01-17T15:27:42.257Z,95851.16
2023-01-17T15:32:47.931Z,95827.38
2023-01-17T15:37:54.752Z,95828.69
2023-01-17T15:42:59.477Z,95826.25
2023-01-17T15:48:29.145Z,95794.88
2023-01-17T15:53:34.250Z,95820.34
2023-01-17T15:58:35.990Z,95822.00
2023-01-17T16:03:37.664Z,95812.44
2023-01-17T16:08:40.160Z,95800.09
2023-01-17T16:13:43.473Z,95806.88
2023-01-17T16:18:47.342Z,95799.44
2023-01-17T16:23:49.978Z,95817.97
2023-01-17T16:28:52.018Z,95802.91
2023-01-17T16:33:53.817Z,95795.47
2023-01-17T16:38:55.636Z,95810.72
2023-01-17T16:44:00.255Z,95805.84
2023-01-17T16:49:01.984Z,95795.25
2023-01-17T16:54:03.810Z,95801.09
2023-01-17T16:59:05.685Z,95792.34
2023-01-17T17:04:07.431Z,95772.69
2023-01-17T17:09:09.253Z,95758.25
2023-01-17T17:14:11.001Z,95762.88
2023-01-17T17:19:12.842Z,95753.25
2023-01-17T17:24:15.895Z,95738.50
2023-01-17T17:29:17.767Z,95736.84
2023-01-17T17:34:19.680Z,95735.28
2023-01-17T17:39:21.440Z,95738.06
2023-01-17T17:44:23.151Z,95745.91
2023-01-17T17:49:25.902Z,95750.50
2023-01-17T17:54:28.071Z,95750.50
2023-01-17T17:59:30.082Z,95747.88
2023-01-17T18:04:32.270Z,95741.53
2023-01-17T18:09:34.403Z,95745.09
2023-01-17T18:14:36.378Z,95745.72
2023-01-17T18:19:39.076Z,95734.72
2023-01-17T18:24:42.114Z,95725.75
2023-01-17T18:29:44.460Z,95714.38
2023-01-17T18:34:47.447Z,95726.81
2023-01-17T18:39:50.932Z,95721.75
2023-01-17T18:44:54.452Z,95727.81
2023-01-17T18:49:56.947Z,95728.69
2023-01-17T18:54:59.680Z,95714.66
2023-01-17T19:00:05.397Z,95702.09
2023-01-17T19:05:12.250Z,95699.09
2023-01-17T19:10:14.794Z,95700.97
2023-01-17T19:15:17.096Z,95700.78
2023-01-17T19:20:19.499Z,95690.50
2023-01-17T19:25:24.477Z,95683.41
2023-01-17T19:30:27.063Z,95681.94
2023-01-17T19:35:30.341Z,95677.16
2023-01-17T19:40:34.032Z,95678.19
2023-01-17T19:45:37.926Z,95688.63
2023-01-17T19:50:40.528Z,95692.19
2023-01-17T19:55:42.324Z,95683.31
2023-01-17T20:00:46.697Z,95687.38
2023-01-17T20:05:57.127Z,95691.16
2023-01-17T20:11:07.704Z,95687.53
2023-01-17T20:16:12.235Z,95675.28
2023-01-17T20:21:22.253Z,95665.75
2023-01-17T20:26:35.216Z,95665.88
2023-01-17T20:31:39.229Z,95646.97
2023-01-17T20:36:42.340Z,95652.94
2023-01-17T20:41:49.140Z,95664.72
2023-01-17T20:46:51.044Z,95657.94
2023-01-17T20:51:54.003Z,95661.91
2023-01-17T20:56:56.049Z,95661.06
2023-01-17T21:01:58.045Z,95678.31
2023-01-17T21:06:59.946Z,95667.00
2023-01-17T21:12:02.097Z,95636.28
2023-01-17T21:17:03.840Z,95643.22
2023-01-17T21:22:05.583Z,95636.28
2023-01-17T21:27:07.391Z,95627.09
2023-01-17T21:32:09.053Z,95649.03
2023-01-17T21:37:10.660Z,95635.66
2023-01-17T21:42:12.293Z,95632.00
2023-01-17T21:47:13.933Z,95637.44
2023-01-17T21:52:18.365Z,95612.47
2023-01-17T21:57:40.355Z,95614.03
2023-01-17T22:02:43.474Z,95641.53
2023-01-17T22:08:05.728Z,95636.06
2023-01-17T22:13:07.395Z,95633.28
2023-01-17T22:18:09.822Z,95618.66
2023-01-17T22:23:11.929Z,95630.56
2023-01-17T22:28:13.646Z,95616.03
2023-01-17T22:33:15.300Z,95613.63
2023-01-17T22:38:16.941Z,95607.66
2023-01-17T22:43:18.841Z,95625.41
2023-01-17T22:48:20.568Z,95613.72
2023-01-17T22:53:22.278Z,95613.53
2023-01-17T22:58:24.025Z,95582.19
2023-01-17T23:03:25.738Z,95590.75
2023-01-17T23:08:27.360Z,95581.97
2023-01-17T23:13:28.980Z,95557.00
2023-01-17T23:18:49.488Z,95567.25
2023-01-17T23:23:51.132Z,95588.25
2023-01-17T23:28:52.822Z,95589.94
2023-01-17T23:33:54.435Z,95594.50
2023-01-17T23:38:56.016Z,95601.72
2023-01-17T23:43:59.127Z,95594.63
2023-01-17T23:49:00.913Z,95586.59
2023-01-17T23:54:05.556Z,95575.19
2023-01-17T23:59:07.244Z,95557.63
